sensor_id;sensor_type;location;lat;lon;timestamp;pressure;altitude;pressure_sealevel;temperature;humidity
48352;BME280;34163;49.314;6.752;2023-08-01T00:02:22;98416.22;;;6.11;100.00
48352;BME280;34163;49.314;6.752;2023-08-01T00:04:47;98411.53;;;5.98;100.00
48352;BME280;34163;49.314;6.752;2023-08-01T00:07:13;98407.91;;;6.01;100.00
48352;BME280;34163;49.314;6.752;2023-08-01T00:09:38;98376.81;;;5.90;100.00
48352;BME280;34163;49.314;6.752;2023-08-01T00:12:03;98385.25;;;5.98;100.00
48352;BME280;34163;49.314;6.752;2023-08-01T07:55:59;98376.03;;;5.88;100.00
48352;BME280;34163;49.314;6.752;2023-08-01T07:58:24;98377.59;;;5.92;100.00
48352;BME280;34163;49.314;6.752;2023-08-01T08:00:49;98380.38;;;5.89;100.00
48352;BME280;34163;49.314;6.752;2023-08-01T08:03:15;98384.31;;;5.99;100.00
48352;BME280;34163;49.314;6.752;2023-08-01T08:05:40;98381.91;;;5.93;100.00
48352;BME280;34163;49.314;6.752;2023-08-01T08:08:05;98388.81;;;5.96;100.00
48352;BME280;34163;49.314;6.752;2023-08-01T08:10:31;98389.81;;;5.93;100.00
48352;BME280;34163;49.314;6.752;2023-08-01T08:12:56;98396.56;;;5.80;100.00
48352;BME280;34163;49.314;6.752;2023-08-01T08:15:22;98392.63;;;18.58;100.00
48352;BME280;34163;49.314;6.752;2023-08-01T08:17:48;98371.63;;;11.05;100.00
48352;BME280;34163;49.314;6.752;2023-08-01T08:20:14;98397.25;;;8.92;100.00
48352;BME280;34163;49.314;6.752;2023-08-01T08:22:39;98410.06;;;8.68;100.00
48352;BME280;34163;49.314;6.752;2023-08-01T08:25:04;98415.00;;;8.58;100.00
48352;BME280;34163;49.314;6.752;2023-08-01T08:27:30;98424.03;;;8.70;100.00
48352;BME280;34163;49.314;6.752;2023-08-01T08:29:55;98423.75;;;7.95;100.00
48352;BME280;34163;49.314;6.752;2023-08-01T08:32:20;98416.78;;;20.53;100.00
48352;BME280;34163;49.314;6.752;2023-08-01T08:34:45;98340.19;;;23.29;100.00
48352;BME280;34163;49.314;6.752;2023-08-01T08:37:11;98366.19;;;16.33;100.00
48352;BME280;34163;49.314;6.752;2023-08-01T08:39:36;98404.84;;;11.24;100.00
48352;BME280;34163;49.314;6.752;2023-08-01T08:42:01;98409.28;;;9.71;100.00
48352;BME280;34163;49.314;6.752;2023-08-01T08:44:26;98422.75;;;9.38;100.00
48352;BME280;34163;49.314;6.752;2023-08-01T08:46:55;98417.47;;;9.38;100.00
48352;BME280;34163;49.314;6.752;2023-08-01T08:49:24;98426.13;;;9.25;100.00
48352;BME280;34163;49.314;6.752;2023-08-01T08:51:51;98420.13;;;8.61;100.00
48352;BME280;34163;49.314;6.752;2023-08-01T08:54:17;98421.09;;;7.95;100.00
48352;BME280;34163;49.314;6.752;2023-08-01T08:56:42;98413.41;;;7.74;100.00
48352;BME280;34163;49.314;6.752;2023-08-01T08:59:08;98415.31;;;7.55;100.00
48352;BME280;34163;49.314;6.752;2023-08-01T09:01:35;98418.66;;;7.41;100.00
48352;BME280;34163;49.314;6.752;2023-08-01T09:04:00;98422.94;;;7.26;100.00
48352;BME280;34163;49.314;6.752;2023-08-01T09:06:34;98422.53;;;7.16;100.00
48352;BME280;34163;49.314;6.752;2023-08-01T09:09:03;98427.03;;;7.14;100.00
48352;BME280;34163;49.314;6.752;2023-08-01T09:11:35;98430.13;;;7.05;100.00
48352;BME280;34163;49.314;6.752;2023-08-01T09:14:02;98418.59;;;7.07;100.00
48352;BME280;34163;49.314;6.752;2023-08-01T09:16:28;98428.22;;;7.08;100.00
48352;BME280;34163;49.314;6.752;2023-08-01T09:18:53;98440.03;;;7.00;100.00
48352;BME280;34163;49.314;6.752;2023-08-01T09:21:19;98429.19;;;7.06;100.00
48352;BME280;34163;49.314;6.752;2023-08-01T09:23:45;98440.59;;;7.06;100.00
48352;BME280;34163;49.314;6.752;2023-08-01T09:26:17;98434.84;;;6.98;100.00
48352;BME280;34163;49.314;6.752;2023-08-01T09:28:42;98447.06;;;6.82;100.00
48352;BME280;34163;49.314;6.752;2023-08-01T09:31:07;98452.66;;;6.93;100.00
48352;BME280;34163;49.314;6.752;2023-08-01T09:33:39;98445.13;;;6.85;100.00
48352;BME280;34163;49.314;6.752;2023-08-01T09:36:05;98446.94;;;6.85;100.00
48352;BME280;34163;49.314;6.752;2023-08-01T09:38:33;98443.50;;;6.65;100.00
48352;BME280;34163;49.314;6.752;2023-08-01T09:40:59;98447.88;;;6.65;100.00
48352;BME280;34163;49.314;6.752;2023-08-01T09:43:24;98457.41;;;6.67;100.00
48352;BME280;34163;49.314;6.752;2023-08-01T09:45:50;98450.38;;;6.68;100.00
48352;BME280;34163;49.314;6.752;2023-08-01T09:48:26;98455.06;;;6.61;100.00
48352;BME280;34163;49.314;6.752;2023-08-01T09:50:52;98464.19;;;6.54;100.00
48352;BME280;34163;49.314;6.752;2023-08-01T09:53:18;98462.50;;;6.53;100.00
48352;BME280;34163;49.314;6.752;2023-08-01T09:55:43;98458.78;;;6.57;100.00
48352;BME280;34163;49.314;6.752;2023-08-01T09:58:11;98456.88;;;6.61;100.00
48352;BME280;34163;49.314;6.752;2023-08-01T10:00:38;98463.41;;;6.52;100.00
48352;BME280;34163;49.314;6.752;2023-08-01T10:03:03;98457.44;;;6.48;100.00
48352;BME280;34163;49.314;6.752;2023-08-01T10:05:34;98464.25;;;6.52;100.00
48352;BME280;34163;49.314;6.752;2023-08-01T10:08:06;98460.78;;;6.52;100.00
48352;BME280;34163;49.314;6.752;2023-08-01T10:10:32;98471.44;;;6.49;100.00
48352;BME280;34163;49.314;6.752;2023-08-01T10:12:58;98461.28;;;6.41;100.00
48352;BME280;34163;49.314;6.752;2023-08-01T10:15:25;98466.47;;;6.43;100.00
48352;BME280;34163;49.314;6.752;2023-08-01T10:17:51;98467.56;;;6.39;100.00
48352;BME280;34163;49.314;6.752;2023-08-01T10:20:17;98466.69;;;6.38;100.00
48352;BME280;34163;49.314;6.752;2023-08-01T10:22:43;98470.66;;;6.47;100.00
48352;BME280;34163;49.314;6.752;2023-08-01T10:25:09;98471.03;;;6.39;100.00
48352;BME280;34163;49.314;6.752;2023-08-01T10:27:35;98471.88;;;6.40;100.00
48352;BME280;34163;49.314;6.752;2023-08-01T10:30:02;98477.88;;;6.43;100.00
48352;BME280;34163;49.314;6.752;2023-08-01T10:32:31;98470.75;;;6.45;100.00
48352;BME280;34163;49.314;6.752;2023-08-01T10:34:57;98474.81;;;6.33;100.00
48352;BME280;34163;49.314;6.752;2023-08-01T10:37:22;98467.69;;;6.35;100.00
48352;BME280;34163;49.314;6.752;2023-08-01T10:39:55;98479.00;;;6.38;100.00
48352;BME280;34163;49.314;6.752;2023-08-01T10:42:21;98468.81;;;6.30;100.00
48352;BME280;34163;49.314;6.752;2023-08-01T10:44:46;98468.81;;;6.30;100.00
48352;BME280;34163;49.314;6.752;2023-08-01T10:47:11;98475.66;;;6.34;100.00
48352;BME280;34163;49.314;6.752;2023-08-01T10:49:52;98469.09;;;6.24;100.00
48352;BME280;34163;49.314;6.752;2023-08-01T10:54:43;98469.91;;;6.26;100.00
48352;BME280;34163;49.314;6.752;2023-08-01T10:57:08;98473.38;;;6.26;100.00
48352;BME280;34163;49.314;6.752;2023-08-01T10:59:34;98475.38;;;6.21;100.00
48352;BME280;34163;49.314;6.752;2023-08-01T11:01:59;98478.78;;;6.23;100.00
48352;BME280;34163;49.314;6.752;2023-08-01T11:04:25;98481.53;;;6.20;100.00
48352;BME280;34163;49.314;6.752;2023-08-01T11:06:51;98480.63;;;6.21;100.00
48352;BME280;34163;49.314;6.752;2023-08-01T11:09:21;98472.53;;;6.26;100.00
48352;BME280;34163;49.314;6.752;2023-08-01T11:11:53;98486.72;;;6.22;100.00
48352;BME280;34163;49.314;6.752;2023-08-01T11:14:22;98477.63;;;6.10;100.00
48352;BME280;34163;49.314;6.752;2023-08-01T11:16:48;98478.91;;;6.20;100.00
48352;BME280;34163;49.314;6.752;2023-08-01T11:19:17;98479.84;;;6.19;100.00
48352;BME280;34163;49.314;6.752;2023-08-01T11:21:43;98469.47;;;18.12;100.00
48352;BME280;34163;49.314;6.752;2023-08-01T11:24:08;98462.38;;;8.61;100.00
48352;BME280;34163;49.314;6.752;2023-08-01T11:26:34;98473.53;;;7.15;100.00
48352;BME280;34163;49.314;6.752;2023-08-01T11:29:02;98471.63;;;6.82;100.00
48352;BME280;34163;49.314;6.752;2023-08-01T11:31:28;98469.72;;;6.67;100.00
48352;BME280;34163;49.314;6.752;2023-08-01T11:33:57;98479.53;;;6.63;100.00
48352;BME280;34163;49.314;6.752;2023-08-01T11:36:24;98481.91;;;6.50;100.00
48352;BME280;34163;49.314;6.752;2023-08-01T11:38:49;98470.97;;;6.41;100.00
48352;BME280;34163;49.314;6.752;2023-08-01T11:41:15;98473.22;;;6.48;100.00
48352;BME280;34163;49.314;6.752;2023-08-01T11:43:40;98467.63;;;6.37;100.00
48352;BME280;34163;49.314;6.752;2023-08-01T11:46:06;98474.50;;;6.40;100.00
48352;BME280;34163;49.314;6.752;2023-08-01T11:48:52;98474.50;;;6.40;100.00
48352;BME280;34163;49.314;6.752;2023-08-01T11:51:17;98472.47;;;6.27;100.00
48352;BME280;34163;49.314;6.752;2023-08-01T11:53:43;98477.06;;;6.22;100.00
48352;BME280;34163;49.314;6.752;2023-08-01T11:56:08;98476.91;;;6.25;100.00
48352;BME280;34163;49.314;6.752;2023-08-01T11:58:34;98480.97;;;6.32;100.00
48352;BME280;34163;49.314;6.752;2023-08-01T12:01:10;98488.09;;;6.30;100.00
48352;BME280;34163;49.314;6.752;2023-08-01T12:03:48;98489.50;;;6.18;100.00
48352;BME280;34163;49.314;6.752;2023-08-01T12:06:13;98485.97;;;6.20;100.00
48352;BME280;34163;49.314;6.752;2023-08-01T12:08:40;98492.13;;;6.18;100.00
48352;BME280;34163;49.314;6.752;2023-08-01T12:11:06;98492.84;;;6.22;100.00
48352;BME280;34163;49.314;6.752;2023-08-01T12:13:31;98494.75;;;6.18;100.00
48352;BME280;34163;49.314;6.752;2023-08-01T12:15:56;98495.84;;;6.14;100.00
48352;BME280;34163;49.314;6.752;2023-08-01T12:18:22;98486.31;;;6.12;100.00
48352;BME280;34163;49.314;6.752;2023-08-01T12:20:48;98486.31;;;6.12;100.00
48352;BME280;34163;49.314;6.752;2023-08-01T12:23:13;98483.75;;;6.10;100.00
48352;BME280;34163;49.314;6.752;2023-08-01T12:25:38;98481.31;;;6.06;100.00
48352;BME280;34163;49.314;6.752;2023-08-01T12:28:03;98474.19;;;6.08;100.00
48352;BME280;34163;49.314;6.752;2023-08-01T12:30:29;98475.22;;;6.05;100.00
48352;BME280;34163;49.314;6.752;2023-08-01T12:32:54;98483.16;;;6.04;100.00
48352;BME280;34163;49.314;6.752;2023-08-01T12:35:19;98479.78;;;6.02;100.00
48352;BME280;34163;49.314;6.752;2023-08-01T12:37:44;98484.34;;;5.96;100.00
48352;BME280;34163;49.314;6.752;2023-08-01T12:40:10;98485.94;;;6.00;100.00
48352;BME280;34163;49.314;6.752;2023-08-01T12:42:35;98496.47;;;6.00;100.00
48352;BME280;34163;49.314;6.752;2023-08-01T12:45:00;98482.91;;;6.10;100.00
48352;BME280;34163;49.314;6.752;2023-08-01T12:47:26;98486.44;;;6.09;100.00
48352;BME280;34163;49.314;6.752;2023-08-01T12:49:51;98474.19;;;6.08;100.00
48352;BME280;34163;49.314;6.752;2023-08-01T12:52:23;98473.03;;;5.94;100.00
48352;BME280;34163;49.314;6.752;2023-08-01T12:54:49;98482.47;;;6.00;100.00
48352;BME280;34163;49.314;6.752;2023-08-01T12:57:14;98470.34;;;5.96;100.00
48352;BME280;34163;49.314;6.752;2023-08-01T12:59:40;98476.13;;;6.04;100.00
48352;BME280;34163;49.314;6.752;2023-08-01T13:02:05;98473.94;;;5.93;100.00
48352;BME280;34163;49.314;6.752;2023-08-01T13:04:33;98480.59;;;6.02;100.00
48352;BME280;34163;49.314;6.752;2023-08-01T13:06:59;98474.50;;;6.02;100.00
48352;BME280;34163;49.314;6.752;2023-08-01T13:09:24;98479.91;;;5.98;100.00
48352;BME280;34163;49.314;6.752;2023-08-01T13:11:49;98478.03;;;6.00;100.00
48352;BME280;34163;49.314;6.752;2023-08-01T13:14:14;98472.94;;;5.97;100.00
48352;BME280;34163;49.314;6.752;2023-08-01T13:16:40;98474.88;;;5.92;100.00
48352;BME280;34163;49.314;6.752;2023-08-01T13:19:06;98482.63;;;5.95;100.00
48352;BME280;34163;49.314;6.752;2023-08-01T13:21:32;98494.88;;;5.96;100.00
48352;BME280;34163;49.314;6.752;2023-08-01T13:23:59;98481.59;;;5.99;100.00
48352;BME280;34163;49.314;6.752;2023-08-01T13:26:24;98495.69;;;5.98;100.00
48352;BME280;34163;49.314;6.752;2023-08-01T13:28:50;98486.97;;;5.96;100.00
48352;BME280;34163;49.314;6.752;2023-08-01T13:31:15;98485.16;;;5.98;100.00
48352;BME280;34163;49.314;6.752;2023-08-01T13:33:40;98489.34;;;6.03;100.00
48352;BME280;34163;49.314;6.752;2023-08-01T13:36:06;98494.06;;;5.94;100.00
48352;BME280;34163;49.314;6.752;2023-08-01T13:38:32;98489.78;;;5.92;100.00
48352;BME280;34163;49.314;6.752;2023-08-01T13:41:00;98494.88;;;5.96;100.00
48352;BME280;34163;49.314;6.752;2023-08-01T13:43:26;98491.75;;;5.87;100.00
48352;BME280;34163;49.314;6.752;2023-08-01T13:45:51;98488.69;;;5.97;100.00
48352;BME280;34163;49.314;6.752;2023-08-01T13:48:17;98501.31;;;5.89;100.00
48352;BME280;34163;49.314;6.752;2023-08-01T13:50:43;98499.22;;;5.97;100.00
48352;BME280;34163;49.314;6.752;2023-08-01T13:53:08;98499.31;;;5.94;100.00
48352;BME280;34163;49.314;6.752;2023-08-01T13:55:35;98495.75;;;5.97;100.00
48352;BME280;34163;49.314;6.752;2023-08-01T13:58:00;98493.81;;;6.00;100.00
48352;BME280;34163;49.314;6.752;2023-08-01T14:00:26;98500.94;;;5.98;100.00
48352;BME280;34163;49.314;6.752;2023-08-01T14:02:51;98491.84;;;6.06;100.00
48352;BME280;34163;49.314;6.752;2023-08-01T14:05:16;98493.81;;;6.00;100.00
48352;BME280;34163;49.314;6.752;2023-08-01T14:07:42;98502.75;;;5.96;100.00
48352;BME280;34163;49.314;6.752;2023-08-01T14:10:07;98500.09;;;6.17;100.00
48352;BME280;34163;49.314;6.752;2023-08-01T14:12:32;98502.34;;;6.06;100.00
48352;BME280;34163;49.314;6.752;2023-08-01T14:14:58;98514.88;;;6.00;100.00
48352;BME280;34163;49.314;6.752;2023-08-01T14:17:23;98505.19;;;6.01;100.00
48352;BME280;34163;49.314;6.752;2023-08-01T14:19:48;98521.66;;;6.05;100.00
48352;BME280;34163;49.314;6.752;2023-08-01T14:22:15;98512.41;;;5.96;100.00
48352;BME280;34163;49.314;6.752;2023-08-01T14:24:40;98517.41;;;6.02;100.00
48352;BME280;34163;49.314;6.752;2023-08-01T14:27:07;98521.97;;;5.98;100.00
48352;BME280;34163;49.314;6.752;2023-08-01T14:29:32;98519.28;;;6.00;100.00
48352;BME280;34163;49.314;6.752;2023-08-01T14:31:58;98518.25;;;6.03;100.00
48352;BME280;34163;49.314;6.752;2023-08-01T14:34:23;98515.22;;;5.91;100.00
48352;BME280;34163;49.314;6.752;2023-08-01T14:36:48;98520.50;;;5.91;100.00
48352;BME280;34163;49.314;6.752;2023-08-01T14:39:13;98512.47;;;5.94;100.00
48352;BME280;34163;49.314;6.752;2023-08-01T14:41:39;98517.94;;;5.90;100.00
48352;BME280;34163;49.314;6.752;2023-08-01T14:44:04;98501.78;;;5.99;100.00
48352;BME280;34163;49.314;6.752;2023-08-01T14:46:29;98514.09;;;5.98;100.00
48352;BME280;34163;49.314;6.752;2023-08-01T14:48:54;98516.88;;;5.94;100.00
48352;BME280;34163;49.314;6.752;2023-08-01T14:51:20;98517.84;;;5.91;100.00
48352;BME280;34163;49.314;6.752;2023-08-01T14:53:45;98527.34;;;5.95;100.00
48352;BME280;34163;49.314;6.752;2023-08-01T14:56:11;98519.78;;;5.88;100.00
48352;BME280;34163;49.314;6.752;2023-08-01T14:58:36;98518.63;;;5.93;100.00
48352;BME280;34163;49.314;6.752;2023-08-01T15:01:04;98520.63;;;5.88;100.00
48352;BME280;34163;49.314;6.752;2023-08-01T15:03:30;98512.38;;;5.97;100.00
48352;BME280;34163;49.314;6.752;2023-08-01T15:05:55;98508.91;;;5.97;100.00
48352;BME280;34163;49.314;6.752;2023-08-01T15:08:20;98521.66;;;6.05;100.00
48352;BME280;34163;49.314;6.752;2023-08-01T15:10:45;98531.78;;;6.14;100.00
48352;BME280;34163;49.314;6.752;2023-08-01T15:13:11;98524.53;;;6.00;100.00
48352;BME280;34163;49.314;6.752;2023-08-01T15:15:36;98520.50;;;5.91;100.00
48352;BME280;34163;49.314;6.752;2023-08-01T15:18:02;98530.78;;;5.97;100.00
48352;BME280;34163;49.314;6.752;2023-08-01T15:20:27;98542.88;;;6.02;100.00
48352;BME280;34163;49.314;6.752;2023-08-01T15:22:52;98566.59;;;6.00;100.00
48352;BME280;34163;49.314;6.752;2023-08-01T15:25:18;98558.38;;;5.87;100.00
48352;BME280;34163;49.314;6.752;2023-08-01T15:27:43;98547.69;;;5.90;100.00
48352;BME280;34163;49.314;6.752;2023-08-01T15:30:08;98565.06;;;5.94;100.00
48352;BME280;34163;49.314;6.752;2023-08-01T15:32:33;98549.88;;;5.80;100.00
48352;BME280;34163;49.314;6.752;2023-08-01T15:34:59;98543.63;;;5.83;100.00
48352;BME280;34163;49.314;6.752;2023-08-01T15:37:24;98552.84;;;5.73;100.00
48352;BME280;34163;49.314;6.752;2023-08-01T15:39:50;98545.63;;;5.78;100.00
48352;BME280;34163;49.314;6.752;2023-08-01T15:42:15;98555.88;;;5.84;100.00
48352;BME280;34163;49.314;6.752;2023-08-01T15:44:40;98562.31;;;5.97;100.00
48352;BME280;34163;49.314;6.752;2023-08-01T15:47:05;98570.25;;;5.96;100.00
48352;BME280;34163;49.314;6.752;2023-08-01T15:49:31;98565.97;;;5.93;100.00
48352;BME280;34163;49.314;6.752;2023-08-01T15:51:56;98560.00;;;5.90;100.00
48352;BME280;34163;49.314;6.752;2023-08-01T15:54:21;98563.41;;;5.92;100.00
48352;BME280;34163;49.314;6.752;2023-08-01T15:56:46;98564.97;;;5.97;100.00
48352;BME280;34163;49.314;6.752;2023-08-01T15:59:12;98570.16;;;5.99;100.00
48352;BME280;34163;49.314;6.752;2023-08-01T16:01:37;98569.31;;;5.98;100.00
48352;BME280;34163;49.314;6.752;2023-08-01T16:04:02;98572.22;;;5.91;100.00
48352;BME280;34163;49.314;6.752;2023-08-01T16:06:28;98572.72;;;6.00;100.00
48352;BME280;34163;49.314;6.752;2023-08-01T16:08:53;98579.97;;;5.94;100.00
48352;BME280;34163;49.314;6.752;2023-08-01T16:11:18;98597.44;;;5.95;100.00
48352;BME280;34163;49.314;6.752;2023-08-01T16:13:43;98600.94;;;5.95;100.00
48352;BME280;34163;49.314;6.752;2023-08-01T16:16:09;98606.22;;;5.95;100.00
48352;BME280;34163;49.314;6.752;2023-08-01T16:18:34;98610.72;;;5.92;100.00
48352;BME280;34163;49.314;6.752;2023-08-01T16:20:59;98605.75;;;5.86;100.00
48352;BME280;34163;49.314;6.752;2023-08-01T16:23:24;98609.88;;;5.91;100.00
48352;BME280;34163;49.314;6.752;2023-08-01T16:25:50;98609.28;;;5.85;100.00
48352;BME280;34163;49.314;6.752;2023-08-01T16:28:15;98613.41;;;5.90;100.00
48352;BME280;34163;49.314;6.752;2023-08-01T16:30:40;98617.19;;;5.85;100.00
48352;BME280;34163;49.314;6.752;2023-08-01T16:33:06;98619.09;;;5.81;100.00
48352;BME280;34163;49.314;6.752;2023-08-01T16:35:31;98626.97;;;5.81;100.00
48352;BME280;34163;49.314;6.752;2023-08-01T16:37:58;98625.25;;;5.80;100.00
48352;BME280;34163;49.314;6.752;2023-08-01T16:40:23;98636.44;;;5.85;100.00
48352;BME280;34163;49.314;6.752;2023-08-01T16:42:51;98629.19;;;5.90;100.00
48352;BME280;34163;49.314;6.752;2023-08-01T16:45:16;98633.66;;;5.88;100.00
48352;BME280;34163;49.314;6.752;2023-08-01T16:47:42;98631.03;;;5.88;100.00
48352;BME280;34163;49.314;6.752;2023-08-01T16:50:13;98633.25;;;5.77;100.00
48352;BME280;34163;49.314;6.752;2023-08-01T16:52:39;98632.53;;;5.73;100.00
48352;BME280;34163;49.314;6.752;2023-08-01T16:55:04;98631.34;;;5.80;100.00
48352;BME280;34163;49.314;6.752;2023-08-01T16:57:30;98632.28;;;5.79;100.00
48352;BME280;34163;49.314;6.752;2023-08-01T16:59:55;98628.00;;;5.77;100.00
48352;BME280;34163;49.314;6.752;2023-08-01T17:02:20;98630.63;;;5.77;100.00
48352;BME280;34163;49.314;6.752;2023-08-01T17:04:46;98622.16;;;5.70;100.00
48352;BME280;34163;49.314;6.752;2023-08-01T17:07:11;98618.28;;;5.79;100.00
48352;BME280;34163;49.314;6.752;2023-08-01T17:09:36;98621.84;;;5.78;100.00
48352;BME280;34163;49.314;6.752;2023-08-01T17:12:02;98610.31;;;5.80;100.00
48352;BME280;34163;49.314;6.752;2023-08-01T17:14:27;98613.84;;;5.81;100.00
48352;BME280;34163;49.314;6.752;2023-08-01T17:16:53;98612.75;;;5.85;100.00
48352;BME280;34163;49.314;6.752;2023-08-01T17:19:18;98616.41;;;5.82;100.00
48352;BME280;34163;49.314;6.752;2023-08-01T17:21:43;98612.31;;;5.75;100.00
48352;BME280;34163;49.314;6.752;2023-08-01T17:24:09;98603.44;;;5.78;100.00
48352;BME280;34163;49.314;6.752;2023-08-01T17:26:36;98608.63;;;5.79;100.00
48352;BME280;34163;49.314;6.752;2023-08-01T17:29:01;98614.81;;;5.78;100.00
48352;BME280;34163;49.314;6.752;2023-08-01T17:31:27;98613.97;;;5.78;100.00
48352;BME280;34163;49.314;6.752;2023-08-01T17:33:52;98612.25;;;5.77;100.00
48352;BME280;34163;49.314;6.752;2023-08-01T17:36:18;98618.97;;;5.84;100.00
48352;BME280;34163;49.314;6.752;2023-08-01T17:38:44;98630.75;;;5.74;100.00
48352;BME280;34163;49.314;6.752;2023-08-01T17:41:22;98618.47;;;5.74;100.00
48352;BME280;34163;49.314;6.752;2023-08-01T17:43:48;98615.06;;;5.72;100.00
48352;BME280;34163;49.314;6.752;2023-08-01T17:46:14;98623.13;;;5.68;100.00
48352;BME280;34163;49.314;6.752;2023-08-01T17:48:39;98626.44;;;5.73;100.00
48352;BME280;34163;49.314;6.752;2023-08-01T17:51:05;98630.69;;;5.75;100.00
48352;BME280;34163;49.314;6.752;2023-08-01T17:53:30;98635.13;;;5.75;100.00
48352;BME280;34163;49.314;6.752;2023-08-01T17:55:55;98626.28;;;5.76;100.00
48352;BME280;34163;49.314;6.752;2023-08-01T17:58:20;98627.22;;;5.75;100.00
48352;BME280;34163;49.314;6.752;2023-08-01T18:00:46;98628.84;;;5.77;100.00
48352;BME280;34163;49.314;6.752;2023-08-01T18:03:11;98633.25;;;5.77;100.00
48352;BME280;34163;49.314;6.752;2023-08-01T18:05:36;98632.28;;;5.79;100.00
48352;BME280;34163;49.314;6.752;2023-08-01T18:08:02;98637.69;;;5.76;100.00
48352;BME280;34163;49.314;6.752;2023-08-01T18:10:27;98639.31;;;5.79;100.00
48352;BME280;34163;49.314;6.752;2023-08-01T18:12:56;98634.09;;;5.77;100.00
48352;BME280;34163;49.314;6.752;2023-08-01T18:15:21;98636.09;;;5.72;100.00
48352;BME280;34163;49.314;6.752;2023-08-01T18:17:46;98635.84;;;5.78;100.00
48352;BME280;34163;49.314;6.752;2023-08-01T18:20:11;98645.50;;;5.78;100.00
48352;BME280;34163;49.314;6.752;2023-08-01T18:22:37;98640.97;;;5.81;100.00
48352;BME280;34163;49.314;6.752;2023-08-01T18:25:02;98645.63;;;5.75;100.00
48352;BME280;34163;49.314;6.752;2023-08-01T18:27:28;98648.84;;;5.81;100.00
48352;BME280;34163;49.314;6.752;2023-08-01T18:29:53;98646.94;;;5.85;100.00
48352;BME280;34163;49.314;6.752;2023-08-01T18:32:18;98644.63;;;5.77;100.00
48352;BME280;34163;49.314;6.752;2023-08-01T18:34:44;98647.19;;;5.79;100.00
48352;BME280;34163;49.314;6.752;2023-08-01T18:37:09;98649.75;;;5.80;100.00
48352;BME280;34163;49.314;6.752;2023-08-01T18:39:34;98648.72;;;5.85;100.00
48352;BME280;34163;49.314;6.752;2023-08-01T18:42:00;98643.41;;;5.86;100.00
48352;BME280;34163;49.314;6.752;2023-08-01T18:44:28;98649.63;;;5.83;100.00
48352;BME280;34163;49.314;6.752;2023-08-01T18:46:53;98651.34;;;5.85;100.00
48352;BME280;34163;49.314;6.752;2023-08-01T18:49:18;98651.53;;;5.80;100.00
48352;BME280;34163;49.314;6.752;2023-08-01T18:51:44;98660.28;;;5.80;100.00
48352;BME280;34163;49.314;6.752;2023-08-01T18:54:09;98658.72;;;5.76;100.00
48352;BME280;34163;49.314;6.752;2023-08-01T18:56:35;98658.41;;;5.84;100.00
48352;BME280;34163;49.314;6.752;2023-08-01T18:59:00;98659.19;;;5.86;100.00
48352;BME280;34163;49.314;6.752;2023-08-01T19:01:25;98655.78;;;5.84;100.00
48352;BME280;34163;49.314;6.752;2023-08-01T19:03:51;98656.81;;;5.80;100.00
48352;BME280;34163;49.314;6.752;2023-08-01T19:06:17;98653.91;;;5.86;100.00
48352;BME280;34163;49.314;6.752;2023-08-01T19:08:43;98662.00;;;5.81;100.00
48352;BME280;34163;49.314;6.752;2023-08-01T19:11:08;98664.31;;;5.89;100.00
48352;BME280;34163;49.314;6.752;2023-08-01T19:13:33;98656.88;;;5.78;100.00
48352;BME280;34163;49.314;6.752;2023-08-01T19:15:59;98673.03;;;5.90;100.00
48352;BME280;34163;49.314;6.752;2023-08-01T19:18:27;98663.31;;;5.92;100.00
48352;BME280;34163;49.314;6.752;2023-08-01T19:20:53;98667.97;;;5.85;100.00
48352;BME280;34163;49.314;6.752;2023-08-01T19:23:18;98676.53;;;5.90;100.00
48352;BME280;34163;49.314;6.752;2023-08-01T19:25:45;98665.16;;;5.90;100.00
48352;BME280;34163;49.314;6.752;2023-08-01T19:28:11;98674.88;;;5.88;100.00
48352;BME280;34163;49.314;6.752;2023-08-01T19:30:37;98681.06;;;5.87;100.00
48352;BME280;34163;49.314;6.752;2023-08-01T19:33:02;98687.97;;;5.89;100.00
48352;BME280;34163;49.314;6.752;2023-08-01T19:35:29;98686.25;;;5.88;100.00
48352;BME280;34163;49.314;6.752;2023-08-01T19:37:54;98688.03;;;5.88;100.00
48352;BME280;34163;49.314;6.752;2023-08-01T19:40:20;98692.44;;;5.87;100.00
48352;BME280;34163;49.314;6.752;2023-08-01T19:42:45;98696.03;;;5.85;100.00
48352;BME280;34163;49.314;6.752;2023-08-01T19:45:10;98686.44;;;5.83;100.00
48352;BME280;34163;49.314;6.752;2023-08-01T19:47:36;98687.19;;;5.87;100.00
48352;BME280;34163;49.314;6.752;2023-08-01T19:50:01;98687.50;;;5.79;100.00
48352;BME280;34163;49.314;6.752;2023-08-01T19:52:30;98685.59;;;5.83;100.00
48352;BME280;34163;49.314;6.752;2023-08-01T19:54:55;98695.56;;;5.75;100.00
48352;BME280;34163;49.314;6.752;2023-08-01T19:57:21;98686.94;;;6.76;100.00
48352;BME280;34163;49.314;6.752;2023-08-01T19:59:46;98700.00;;;6.17;100.00
48352;BME280;34163;49.314;6.752;2023-08-01T20:02:13;98698.44;;;5.91;100.00
48352;BME280;34163;49.314;6.752;2023-08-01T20:04:38;98705.78;;;5.82;100.00
48352;BME280;34163;49.314;6.752;2023-08-01T20:07:03;98704.06;;;5.81;100.00
48352;BME280;34163;49.314;6.752;2023-08-01T20:09:28;98701.50;;;5.80;100.00
48352;BME280;34163;49.314;6.752;2023-08-01T20:11:54;98710.69;;;5.70;100.00
48352;BME280;34163;49.314;6.752;2023-08-01T20:14:19;98702.56;;;5.74;100.00
48352;BME280;34163;49.314;6.752;2023-08-01T20:16:45;98703.53;;;5.73;100.00
48352;BME280;34163;49.314;6.752;2023-08-01T20:19:10;98699.09;;;5.74;100.00
48352;BME280;34163;49.314;6.752;2023-08-01T20:21:35;98700.03;;;5.73;100.00
48352;BME280;34163;49.314;6.752;2023-08-01T20:24:01;98709.50;;;5.77;100.00
48352;BME280;34163;49.314;6.752;2023-08-01T20:26:26;98711.47;;;5.72;100.00
48352;BME280;34163;49.314;6.752;2023-08-01T20:28:51;98714.28;;;5.67;100.00
48352;BME280;34163;49.314;6.752;2023-08-01T20:31:16;98721.31;;;5.67;100.00
48352;BME280;34163;49.314;6.752;2023-08-01T20:33:41;98714.44;;;5.62;100.00
48352;BME280;34163;49.314;6.752;2023-08-01T20:36:07;98711.66;;;5.67;100.00
48352;BME280;34163;49.314;6.752;2023-08-01T20:38:32;98709.84;;;5.68;100.00